This is the latest recevied weather packets stored in our database for station/object AC0MR. If no packets are shown the sender has not sent any weather packets the latest 1 day(s).
| Time | Temp. | Humidity | Pressure | Rain* | Wind** | Luminosity | Snow |
|---|---|---|---|---|---|---|---|
| 1778081119 | 9.44° C | 49% | 1016.4 hPa | 0 mm | - | 730 W/m² | - |
| 1778073318 | 5.56° C | 61% | 1015.6 hPa | 0 mm | - | 292 W/m² | - |
| 1778072118 | 5° C | 61% | 1015.5 hPa | 0 mm | - | 132 W/m² | - |
| 1778069118 | 3.89° C | 64% | 1014.9 hPa | 0 mm | - | 80 W/m² | - |
| 1778067918 | 3.33° C | 64% | 1014.6 hPa | 0 mm | - | 59 W/m² | - |
| 1778066718 | 3.33° C | 65% | 1013.9 hPa | 0 mm | - | 33 W/m² | - |
| 1778065518 | 3.33° C | 65% | 1013.6 hPa | 0 mm | - | 8 W/m² | - |
| 1778064318 | 3.33° C | 65% | 1013.6 hPa | 0 mm | - | 0 W/m² | - |
| 1778063718 | 3.33° C | 65% | 1013.5 hPa | 0 mm | - | 0 W/m² | - |
| 1778063118 | 3.33° C | 64% | 1013.5 hPa | 0 mm | - | 0 W/m² | - |
| 1778062518 | 3.89° C | 64% | 1013.5 hPa | 0 mm | - | 0 W/m² | - |
| 1778061918 | 3.89° C | 64% | 1013.5 hPa | 0 mm | - | 0 W/m² | - |
| 1778061318 | 3.89° C | 64% | 1013.5 hPa | 0 mm | - | 0 W/m² | - |
| 1778060718 | 3.89° C | 64% | 1013.3 hPa | 0 mm | - | 0 W/m² | - |
| 1778059518 | 3.89° C | 65% | 1013.2 hPa | 0 mm | - | 0 W/m² | - |
| 1778058918 | 3.89° C | 65% | 1013.2 hPa | 0 mm | - | 0 W/m² | - |
| 1778058318 | 3.89° C | 65% | 1013 hPa | 0 mm | - | 0 W/m² | - |
| 1778057718 | 3.89° C | 65% | 1013.2 hPa | 0 mm | - | 0 W/m² | - |
| 1778055318 | 3.33° C | 67% | 1012.8 hPa | 0 mm | - | 0 W/m² | - |
| 1778054718 | 3.33° C | 67% | 1012.9 hPa | 0 mm | - | 0 W/m² | - |
| 1778053518 | 2.78° C | 70% | 1012.8 hPa | 0 mm | - | 0 W/m² | - |
| 1778050520 | 3.33° C | 68% | 1012.4 hPa | 0 mm | - | 0 W/m² | - |
| 1778049920 | 3.33° C | 67% | 1012.3 hPa | 0 mm | - | 0 W/m² | - |
| 1778049319 | 3.89° C | 66% | 1012.3 hPa | 0 mm | - | 0 W/m² | - |
| 1778045119 | 6.11° C | 60% | 1011.9 hPa | 0 mm | - | 0 W/m² | - |
* Rain latest hour (hover to see other rain measurements)
** Current wind speed in m/s (hover to see current wind gust speed)